Main page
METAR-TAF:

METAR-TAF

Airports :

Linz Airport

Linz, Austria

latitude: 48-14N, longitude: 014-11E, elevation: 298 m

Current weather observation

The report was made 46 minutes ago, at 15:50 UTC
Wind 10 kt from the Northwest
Temperature 21°C
Humidity 56%
Pressure 1011 hPa
Visibility 10 km or more

METAR: LOWL 151550Z AUTO 31010KT 9999 NCD 21/12 Q1011 TEMPO SHRA

Time: 18:36 (16:36 UTC)

Forecast

The report was made 5 hours and 21 minutes ago, at 11:15 UTC
Forecast valid from 15 at 12 UTC to 16 at 12 UTC
Wind 5 kt from variable directions
Visibility 10 km or more
Few clouds at a height of 4000 ft
Broken clouds at a height of 5000 ft
Temporary
from 15 at 12 UTC to 15 at 17 UTC
Wind 15 kt from the West
Temporary
from 15 at 14 UTC to 16 at 04 UTC
rain showers
Temporary
from 16 at 03 UTC to 16 at 07 UTC
light rain,

TAF: LOWL 151115Z 1512/1612 VRB05KT 9999 FEW040 BKN050 TX23/1512Z TN14/1601Z TEMPO 1512/1517 27015KT TEMPO 1514/1604 SHRA TEMPO 1603/1607 -RA

Weather observations and forecasts of more than 4000 airports (METAR and TAF reports).

The available stations are represented by yellow and red dots on the map.

Hover mouse over dot to see the name of the station.

Then click to see weather observations and forecasts.

To change the map : click on the green buttons with a black cross to zoom in, on the green button with a dash to zoom out, or on the green arrows for adjacent maps.


METAR-TAF: